createdAt,value
2023-05-23T00:02:02.586Z,100597.53
2023-05-23T00:04:34.074Z,100601.84
2023-05-23T00:07:05.973Z,100593.75
2023-05-23T00:09:37.465Z,100599.19
2023-05-23T00:12:09.263Z,100594.31
2023-05-23T00:14:40.764Z,100592.19
2023-05-23T00:17:12.661Z,100592.47
2023-05-23T00:19:44.195Z,100587.09
2023-05-23T00:22:15.930Z,100576.31
2023-05-23T00:24:47.410Z,100580.88
2023-05-23T00:27:19.006Z,100574.44
2023-05-23T00:29:50.499Z,100576.59
2023-05-23T00:32:22.317Z,100579.28
2023-05-23T00:34:54.247Z,100580.91
2023-05-23T00:37:25.732Z,100579.03
2023-05-23T00:39:57.409Z,100577.16
2023-05-23T00:42:28.900Z,100575.53
2023-05-23T00:45:00.727Z,100568.00
2023-05-23T00:47:32.257Z,100572.34
2023-05-23T00:50:03.782Z,100573.41
2023-05-23T00:52:35.296Z,100570.69
2023-05-23T00:55:07.098Z,100574.47
2023-05-23T00:57:38.612Z,100564.25
2023-05-23T01:00:10.476Z,100555.88
2023-05-23T01:02:42.632Z,100556.69
2023-05-23T01:05:14.543Z,100556.94
2023-05-23T01:07:46.456Z,100566.38
2023-05-23T01:10:17.958Z,100551.28
2023-05-23T01:12:49.790Z,100553.44
2023-05-23T01:15:21.271Z,100549.66
2023-05-23T01:17:53.195Z,100552.91
2023-05-23T01:20:24.689Z,100551.81
2023-05-23T01:22:56.165Z,100552.91
2023-05-23T01:25:27.658Z,100550.47
2023-05-23T01:27:59.306Z,100554.53
2023-05-23T01:30:30.838Z,100560.72
2023-05-23T01:33:02.810Z,100561.53
2023-05-23T01:35:34.417Z,100557.75
2023-05-23T01:38:05.914Z,100551.81
2023-05-23T01:40:37.413Z,100546.16
2023-05-23T01:43:08.899Z,100539.44
2023-05-23T01:45:40.562Z,100529.19
2023-05-23T01:48:12.295Z,100527.31
2023-05-23T01:50:44.115Z,100528.91
2023-05-23T01:53:15.606Z,100530.25
2023-05-23T01:55:47.437Z,100518.13
2023-05-23T01:58:18.954Z,100518.41
2023-05-23T02:00:50.862Z,100541.03
2023-05-23T02:03:22.525Z,100541.84
2023-05-23T02:05:54.379Z,100545.34
2023-05-23T02:08:26.141Z,100533.75
2023-05-23T02:10:57.626Z,100551.53
2023-05-23T02:13:29.124Z,100554.75
2023-05-23T02:16:00.615Z,100544.25
2023-05-23T02:18:32.492Z,100529.72
2023-05-23T02:21:04.147Z,100520.28
2023-05-23T02:23:35.637Z,100524.03
2023-05-23T02:26:07.120Z,100507.88
2023-05-23T02:28:38.622Z,100511.13
2023-05-23T02:31:10.171Z,100509.50
2023-05-23T02:33:42.376Z,100511.38
2023-05-23T02:36:14.185Z,100510.03
2023-05-23T02:38:46.036Z,100511.38
2023-05-23T02:41:17.828Z,100509.50
2023-05-23T02:43:49.295Z,100507.34
2023-05-23T02:46:21.152Z,100504.66
2023-05-23T02:48:52.693Z,100508.41
2023-05-23T02:51:24.186Z,100513.53
2023-05-23T02:53:55.664Z,100511.91
2023-05-23T02:56:27.514Z,100503.56
2023-05-23T02:58:58.999Z,100508.69
2023-05-23T03:01:30.529Z,100515.97
2023-05-23T03:04:02.561Z,100505.44
2023-05-23T03:06:34.303Z,100503.84
2023-05-23T03:09:06.278Z,100502.50
2023-05-23T03:11:37.877Z,100489.28
2023-05-23T03:14:09.790Z,100510.31
2023-05-23T03:16:41.446Z,100521.34
2023-05-23T03:19:13.215Z,100522.16
2023-05-23T03:21:44.984Z,100508.69
2023-05-23T03:24:16.928Z,100505.72
2023-05-23T03:26:48.571Z,100512.47
2023-05-23T03:29:20.455Z,100505.44
2023-05-23T03:31:52.122Z,100484.16
2023-05-23T03:34:23.801Z,100488.75
2023-05-23T03:36:55.617Z,100479.31
2023-05-23T03:39:27.545Z,100478.25
2023-05-23T03:41:59.379Z,100462.34
2023-05-23T03:44:31.190Z,100460.19
2023-05-23T03:47:03.082Z,100467.47
2023-05-23T03:49:34.709Z,100452.66
2023-05-23T03:52:06.751Z,100449.97
2023-05-23T03:54:38.367Z,100449.13
2023-05-23T03:57:10.298Z,100446.19
2023-05-23T03:59:41.887Z,100450.47
2023-05-23T04:02:13.943Z,100445.09
2023-05-23T04:04:46.088Z,100453.44
2023-05-23T04:07:18.058Z,100460.44
2023-05-23T04:09:49.821Z,100497.34
2023-05-23T04:12:21.444Z,100509.97
2023-05-23T04:14:53.045Z,100502.19
2023-05-23T04:17:24.699Z,100485.75
2023-05-23T04:19:56.635Z,100485.78
2023-05-23T04:22:28.241Z,100493.34
2023-05-23T04:24:59.926Z,100493.88
2023-05-23T04:27:31.424Z,100489.03
2023-05-23T04:30:03.270Z,100479.56
2023-05-23T04:32:34.789Z,100469.88
2023-05-23T04:35:06.648Z,100473.13
2023-05-23T04:37:40.186Z,100474.72
2023-05-23T04:40:11.827Z,100470.69
2023-05-23T04:42:43.430Z,100476.88
2023-05-23T04:45:14.901Z,100473.66
2023-05-23T04:47:46.523Z,100463.69
2023-05-23T04:50:18.008Z,100469.06
2023-05-23T04:52:49.515Z,100471.22
2023-05-23T04:55:21.213Z,100483.63
2023-05-23T04:57:53.065Z,100477.69
2023-05-23T05:00:24.546Z,100469.06
2023-05-23T05:02:56.062Z,100462.59
2023-05-23T05:05:27.536Z,100475.00
2023-05-23T05:07:59.222Z,100476.63
2023-05-23T05:10:30.955Z,100478.50
2023-05-23T05:13:02.449Z,100479.03
2023-05-23T05:15:33.947Z,100467.72
2023-05-23T05:18:05.465Z,100470.16
2023-05-23T05:20:36.990Z,100461.25
2023-05-23T05:23:08.462Z,100475.53
2023-05-23T05:25:39.955Z,100469.88
2023-05-23T05:28:11.429Z,100475.00
2023-05-23T05:30:43.290Z,100475.81
2023-05-23T05:33:15.080Z,100477.69
2023-05-23T05:35:46.612Z,100486.59
2023-05-23T05:38:18.577Z,100486.59
2023-05-23T05:40:50.413Z,100488.75
2023-05-23T05:43:22.448Z,100498.44
2023-05-23T05:45:54.002Z,100488.22
2023-05-23T05:48:25.850Z,100494.94
2023-05-23T05:50:57.324Z,100487.41
2023-05-23T05:53:29.209Z,100492.25
2023-05-23T05:56:00.707Z,100485.53
2023-05-23T05:58:32.763Z,100484.16
2023-05-23T06:01:04.273Z,100484.44
2023-05-23T06:03:35.906Z,100483.34
2023-05-23T06:06:07.555Z,100480.66
2023-05-23T06:08:39.061Z,100474.97
2023-05-23T06:11:10.879Z,100485.50
2023-05-23T06:13:42.816Z,100473.84
2023-05-23T06:16:14.720Z,100465.69
2023-05-23T06:18:46.250Z,100478.63
2023-05-23T06:21:18.139Z,100463.72
2023-05-23T06:23:49.622Z,100466.34
2023-05-23T06:26:21.550Z,100458.75
2023-05-23T06:28:53.033Z,100459.41
2023-05-23T06:31:24.948Z,100452.47
2023-05-23T06:33:56.528Z,100444.41
2023-05-23T06:36:28.200Z,100434.13
2023-05-23T06:38:59.854Z,100418.50
2023-05-23T06:41:31.650Z,100410.88
2023-05-23T06:44:03.329Z,100393.19
2023-05-23T06:46:34.822Z,100380.56
2023-05-23T06:49:14.725Z,100365.09
2023-05-23T06:51:46.631Z,100360.66
2023-05-23T06:54:18.511Z,100335.34
2023-05-23T06:56:50.001Z,100333.59
2023-05-23T06:59:21.495Z,100333.00
2023-05-23T07:01:52.993Z,100341.97
2023-05-23T07:04:24.877Z,100346.03
2023-05-23T07:06:56.389Z,100360.06
2023-05-23T07:09:28.149Z,100312.22
2023-05-23T07:12:00.183Z,100317.16
2023-05-23T07:14:31.690Z,100341.69
2023-05-23T07:17:03.372Z,100358.81
2023-05-23T07:19:34.974Z,100353.38
2023-05-23T07:22:06.993Z,100361.78
2023-05-23T07:24:38.515Z,100366.22
2023-05-23T07:27:10.355Z,100381.94
2023-05-23T07:29:41.848Z,100378.84
2023-05-23T07:32:13.805Z,100360.44
2023-05-23T07:34:45.308Z,100366.94
2023-05-23T07:37:17.155Z,100369.66
2023-05-23T07:39:48.965Z,100344.28
2023-05-23T07:42:20.834Z,100368.88
2023-05-23T07:44:52.546Z,100335.75
2023-05-23T07:47:24.104Z,100323.53
2023-05-23T07:49:55.945Z,100322.69
2023-05-23T07:52:27.426Z,100323.03
2023-05-23T07:54:59.265Z,100345.28
2023-05-23T07:57:30.749Z,100366.13
2023-05-23T08:00:02.609Z,100365.06
2023-05-23T08:02:34.304Z,100394.50
2023-05-23T08:05:06.108Z,100403.31
2023-05-23T08:07:37.613Z,100404.72
2023-05-23T08:10:09.419Z,100419.28
2023-05-23T08:12:40.909Z,100419.66
2023-05-23T08:15:12.400Z,100398.00
2023-05-23T08:17:44.285Z,100404.09
2023-05-23T08:20:15.834Z,100385.44
2023-05-23T08:22:47.717Z,100385.88
2023-05-23T08:25:19.213Z,100397.59
2023-05-23T08:27:50.709Z,100390.56
2023-05-23T08:30:22.181Z,100373.94
2023-05-23T08:32:53.917Z,100379.06
2023-05-23T08:35:25.433Z,100371.41
2023-05-23T08:37:57.294Z,100396.66
2023-05-23T08:40:29.271Z,100395.63
2023-05-23T08:43:00.862Z,100410.91
2023-05-23T08:45:32.587Z,100412.38
2023-05-23T08:48:04.220Z,100392.06
2023-05-23T08:50:35.869Z,100392.31
2023-05-23T08:53:07.360Z,100426.22
2023-05-23T08:55:38.971Z,100435.63
2023-05-23T08:58:10.520Z,100427.38
2023-05-23T09:00:42.513Z,100424.00
2023-05-23T09:03:14.247Z,100427.94
2023-05-23T09:05:46.016Z,100461.06
2023-05-23T09:08:17.917Z,100469.28
2023-05-23T09:10:49.572Z,100496.22
2023-05-23T09:13:21.461Z,100485.75
2023-05-23T09:15:53.014Z,100497.50
2023-05-23T09:18:24.849Z,100488.66
2023-05-23T09:20:56.352Z,100483.50
2023-05-23T09:23:28.168Z,100474.34
2023-05-23T09:25:59.648Z,100467.25
2023-05-23T09:28:31.468Z,100426.66
2023-05-23T09:31:02.959Z,100422.63
2023-05-23T09:33:34.440Z,100426.94
2023-05-23T09:36:05.965Z,100450.84
2023-05-23T09:38:37.635Z,100461.38
2023-05-23T09:41:09.398Z,100509.53
2023-05-23T09:43:40.886Z,100543.69
2023-05-23T09:46:12.617Z,100569.22
2023-05-23T09:48:44.115Z,100590.63
2023-05-23T09:51:15.953Z,100581.50
2023-05-23T09:53:47.422Z,100580.63
2023-05-23T09:56:19.110Z,100571.50
2023-05-23T09:58:50.601Z,100559.28
2023-05-23T10:01:22.466Z,100555.06
2023-05-23T10:03:54.009Z,100555.84
2023-05-23T10:06:25.928Z,100548.97
2023-05-23T10:08:57.992Z,100555.22
2023-05-23T10:11:29.896Z,100548.00
2023-05-23T10:14:01.736Z,100556.78
2023-05-23T10:16:33.238Z,100566.69
2023-05-23T10:19:04.931Z,100555.16
2023-05-23T10:21:36.417Z,100532.00
2023-05-23T10:24:08.373Z,100567.78
2023-05-23T10:26:39.942Z,100542.78
2023-05-23T10:29:11.975Z,100551.84
2023-05-23T10:31:43.565Z,100571.50
2023-05-23T10:34:15.499Z,100570.78
2023-05-23T10:36:47.463Z,100562.84
2023-05-23T10:39:19.267Z,100573.22
2023-05-23T10:41:51.138Z,100571.47
2023-05-23T10:44:22.647Z,100575.25
2023-05-23T10:46:54.788Z,100581.59
2023-05-23T10:49:26.339Z,100581.91
2023-05-23T10:51:58.371Z,100443.31
2023-05-23T10:54:29.866Z,100573.63
2023-05-23T10:57:01.638Z,100574.81
2023-05-23T10:59:33.145Z,100558.34
2023-05-23T11:02:04.852Z,100563.84
2023-05-23T11:04:36.375Z,100552.66
2023-05-23T11:07:08.109Z,100567.28
2023-05-23T11:09:39.598Z,100557.09
2023-05-23T11:12:11.083Z,100563.75
2023-05-23T11:14:42.842Z,100590.28
2023-05-23T11:17:14.359Z,100602.88
2023-05-23T11:19:46.217Z,100600.56
2023-05-23T11:22:17.718Z,100599.16
2023-05-23T11:24:49.659Z,100597.84
2023-05-23T11:27:21.147Z,100587.34
2023-05-23T11:29:52.972Z,100599.41
2023-05-23T11:32:24.568Z,100596.06
2023-05-23T11:34:56.519Z,100592.13
2023-05-23T11:37:28.236Z,100601.13
2023-05-23T11:40:00.165Z,100598.13
2023-05-23T11:42:32.085Z,100600.16
2023-05-23T11:45:03.606Z,100591.41
2023-05-23T11:47:35.131Z,100603.25
2023-05-23T11:50:06.654Z,100604.63
2023-05-23T11:52:38.153Z,100600.66
2023-05-23T11:55:09.632Z,100605.03
2023-05-23T11:57:41.161Z,100606.09
2023-05-23T12:00:12.676Z,100604.84
2023-05-23T12:02:44.515Z,100601.44
2023-05-23T12:05:16.105Z,100611.91
2023-05-23T12:07:48.265Z,100613.63
2023-05-23T12:10:19.858Z,100616.81
2023-05-23T12:12:51.377Z,100606.56
2023-05-23T12:15:23.257Z,100615.66
2023-05-23T12:17:55.130Z,100617.28
2023-05-23T12:20:26.889Z,100609.13
2023-05-23T12:22:58.386Z,100611.31
2023-05-23T12:25:30.203Z,100612.47
2023-05-23T12:28:01.716Z,100621.13
2023-05-23T12:30:34.672Z,100615.09
2023-05-23T12:33:06.200Z,100620.72
2023-05-23T12:35:37.735Z,100627.50
2023-05-23T12:38:09.825Z,100613.00
2023-05-23T12:40:41.329Z,100621.53
2023-05-23T12:43:12.878Z,100629.91
2023-05-23T12:45:44.453Z,100622.53
2023-05-23T12:48:16.339Z,100623.28
2023-05-23T12:50:47.853Z,100626.31
2023-05-23T12:53:19.352Z,100624.84
2023-05-23T12:55:50.868Z,100628.63
2023-05-23T12:58:22.404Z,100622.34
2023-05-23T13:00:53.985Z,100621.91
2023-05-23T13:03:25.695Z,100621.53
2023-05-23T13:05:57.560Z,100627.22
2023-05-23T13:08:29.224Z,100615.69
2023-05-23T13:11:00.923Z,100625.84
2023-05-23T13:13:32.425Z,100616.63
2023-05-23T13:16:03.957Z,100629.47
2023-05-23T13:18:35.451Z,100623.63
2023-05-23T13:21:07.288Z,100638.50
2023-05-23T13:23:38.780Z,100627.59
2023-05-23T13:26:10.619Z,100633.84
2023-05-23T13:28:42.105Z,100632.47
2023-05-23T13:31:14.248Z,100639.69
2023-05-23T13:33:45.746Z,100643.31
2023-05-23T13:36:17.459Z,100646.47
2023-05-23T13:38:49.298Z,100646.16
2023-05-23T13:41:20.787Z,100639.28
2023-05-23T13:43:52.703Z,100651.19
2023-05-23T13:46:24.230Z,100666.44
2023-05-23T13:48:56.309Z,100667.16
2023-05-23T13:51:27.789Z,100672.09
2023-05-23T13:53:59.616Z,100676.84
2023-05-23T13:56:31.102Z,100680.06
2023-05-23T13:59:02.955Z,100674.66
2023-05-23T14:01:34.522Z,100680.44
2023-05-23T14:04:07.300Z,100673.75
2023-05-23T14:06:38.920Z,100677.56
2023-05-23T14:09:10.769Z,100679.56
2023-05-23T14:11:42.682Z,100678.59
2023-05-23T14:14:14.168Z,100677.78
2023-05-23T14:16:46.104Z,100680.50
2023-05-23T14:19:17.742Z,100675.66
2023-05-23T14:21:49.544Z,100681.00
2023-05-23T14:24:21.068Z,100684.03
2023-05-23T14:26:52.883Z,100684.38
2023-05-23T14:29:24.413Z,100687.94
2023-05-23T14:31:55.974Z,100696.63
2023-05-23T14:34:27.489Z,100685.56
2023-05-23T14:36:59.202Z,100687.22
2023-05-23T14:39:30.723Z,100689.91
2023-05-23T14:42:02.240Z,100688.84
2023-05-23T14:44:33.795Z,100694.75
2023-05-23T14:47:05.297Z,100688.56
2023-05-23T14:49:36.826Z,100694.50
2023-05-23T14:52:08.310Z,100689.84
2023-05-23T14:54:39.801Z,100699.59
2023-05-23T14:57:11.297Z,100705.72
2023-05-23T14:59:43.134Z,100705.69
2023-05-23T15:02:14.727Z,100701.59
2023-05-23T15:04:46.413Z,100701.59
2023-05-23T15:07:18.234Z,100720.44
2023-05-23T15:09:49.746Z,100714.78
2023-05-23T15:12:21.245Z,100719.00
2023-05-23T15:14:52.717Z,100728.16
2023-05-23T15:17:26.578Z,100742.53
2023-05-23T15:19:58.464Z,100744.81
2023-05-23T15:22:38.437Z,100749.69
2023-05-23T15:25:11.118Z,100751.44
2023-05-23T15:27:42.973Z,100756.25
2023-05-23T15:30:15.032Z,100760.31
2023-05-23T15:32:46.571Z,100756.16
2023-05-23T15:35:19.725Z,100759.22
2023-05-23T15:37:51.436Z,100775.75
2023-05-23T15:40:22.960Z,100762.66
2023-05-23T15:42:54.474Z,100769.03
2023-05-23T15:45:26.160Z,100770.13
2023-05-23T15:47:57.718Z,100767.75
2023-05-23T15:50:29.259Z,100774.09
2023-05-23T15:53:00.787Z,100779.97
2023-05-23T15:55:32.593Z,100780.16
2023-05-23T15:58:04.108Z,100782.81
2023-05-23T16:00:35.611Z,100778.94
2023-05-23T16:03:07.579Z,100785.31
2023-05-23T16:05:39.299Z,100781.06
2023-05-23T16:08:11.327Z,100780.13
2023-05-23T16:10:42.801Z,100786.63
2023-05-23T16:15:45.851Z,100783.31
2023-05-23T16:18:17.703Z,100798.97
2023-05-23T16:20:49.293Z,100796.97
2023-05-23T16:23:21.153Z,100787.59
2023-05-23T16:25:52.631Z,100788.34
2023-05-23T16:28:24.404Z,100797.34
2023-05-23T16:30:55.897Z,100808.69
2023-05-23T16:33:27.452Z,100799.31
2023-05-23T16:35:59.284Z,100810.78
2023-05-23T16:38:30.783Z,100805.03
2023-05-23T16:41:02.677Z,100820.72
2023-05-23T16:43:34.201Z,100824.22
2023-05-23T16:46:06.069Z,100830.75
2023-05-23T16:48:37.584Z,100824.94
2023-05-23T16:51:09.438Z,100825.88
2023-05-23T16:53:40.935Z,100828.50
2023-05-23T16:56:12.428Z,100828.28
2023-05-23T16:58:43.901Z,100832.50
2023-05-23T17:01:15.737Z,100834.84
2023-05-23T17:03:47.751Z,100845.03
2023-05-23T17:06:19.347Z,100850.63
2023-05-23T17:08:51.185Z,100847.25
2023-05-23T17:11:22.677Z,100851.00
2023-05-23T17:13:54.175Z,100855.53
2023-05-23T17:16:25.721Z,100862.19
2023-05-23T17:18:57.787Z,100861.84
2023-05-23T17:21:29.337Z,100866.72
2023-05-23T17:24:01.248Z,100873.34
2023-05-23T17:26:32.757Z,100879.63
2023-05-23T17:29:04.268Z,100887.78
2023-05-23T17:31:35.772Z,100895.19
2023-05-23T17:34:07.308Z,100893.34
2023-05-23T17:36:38.811Z,100900.63
2023-05-23T17:39:10.419Z,100911.81
2023-05-23T17:41:42.185Z,100920.53
2023-05-23T17:44:13.703Z,100904.81
2023-05-23T17:46:45.778Z,100914.94
2023-05-23T17:49:17.311Z,100915.38
2023-05-23T17:51:49.113Z,100909.88
2023-05-23T17:54:20.605Z,100915.00
2023-05-23T17:56:52.090Z,100908.88
2023-05-23T17:59:23.606Z,100916.03
2023-05-23T18:01:55.336Z,100919.03
2023-05-23T18:04:26.861Z,100921.00
2023-05-23T18:06:58.386Z,100927.16
2023-05-23T18:09:30.398Z,100919.72
2023-05-23T18:12:01.877Z,100915.56
2023-05-23T18:14:33.497Z,100930.88
2023-05-23T18:17:05.020Z,100932.06
2023-05-23T18:19:36.696Z,100931.59
2023-05-23T18:22:08.301Z,100936.94
2023-05-23T18:24:39.807Z,100936.91
2023-05-23T18:27:11.314Z,100945.84
2023-05-23T18:29:43.285Z,100952.94
2023-05-23T18:32:15.101Z,100952.72
2023-05-23T18:34:46.580Z,100951.91
2023-05-23T18:37:18.317Z,100957.75
2023-05-23T18:39:49.861Z,100959.84
2023-05-23T18:42:21.851Z,100968.13
2023-05-23T18:44:53.331Z,100975.91
2023-05-23T18:47:25.174Z,100977.56
2023-05-23T18:49:56.670Z,100980.47
2023-05-23T18:52:28.329Z,100986.34
2023-05-23T18:54:59.835Z,100983.91
2023-05-23T18:57:31.662Z,100993.69
2023-05-23T19:00:03.531Z,100994.97
2023-05-23T19:02:35.269Z,101005.44
2023-05-23T19:05:07.131Z,100999.28
2023-05-23T19:07:38.632Z,101005.56
2023-05-23T19:10:10.454Z,101010.91
2023-05-23T19:12:41.947Z,101011.38
2023-05-23T19:15:13.923Z,101009.75
2023-05-23T19:17:45.483Z,101015.91
2023-05-23T19:20:17.174Z,101021.47
2023-05-23T19:22:52.238Z,101025.56
2023-05-23T19:25:24.503Z,101031.50
2023-05-23T19:27:56.182Z,101053.66
2023-05-23T19:30:27.671Z,101024.00
2023-05-23T19:32:59.521Z,101037.16
2023-05-23T19:35:31.070Z,101042.28
2023-05-23T19:38:02.950Z,101038.78
2023-05-23T19:40:34.472Z,101053.56
2023-05-23T19:43:06.334Z,101050.44
2023-05-23T19:45:37.880Z,101045.91
2023-05-23T19:48:09.758Z,101056.75
2023-05-23T19:50:41.460Z,101059.19
2023-05-23T19:53:13.337Z,101069.91
2023-05-23T19:55:45.157Z,101068.03
2023-05-23T19:58:16.859Z,101066.63
2023-05-23T20:00:48.376Z,101069.16
2023-05-23T20:03:19.851Z,101072.88
2023-05-23T20:05:51.369Z,100939.91
2023-05-23T20:08:22.834Z,101074.28
2023-05-23T20:10:54.812Z,101077.19
2023-05-23T20:13:26.316Z,101085.81
2023-05-23T20:15:57.870Z,101090.13
2023-05-23T20:18:29.421Z,101091.16
2023-05-23T20:21:03.520Z,101100.97
2023-05-23T20:23:36.530Z,101104.91
2023-05-23T20:26:09.690Z,101102.16
2023-05-23T20:28:41.360Z,101101.72
2023-05-23T20:31:12.880Z,101104.47
2023-05-23T20:33:44.750Z,101103.66
2023-05-23T20:36:16.218Z,101124.84
2023-05-23T20:38:47.904Z,101119.97
2023-05-23T20:41:19.477Z,101125.75
2023-05-23T20:43:51.143Z,101126.19
2023-05-23T20:46:22.763Z,101123.13
2023-05-23T20:48:54.349Z,101129.59
2023-05-23T20:51:25.848Z,101127.50
2023-05-23T20:53:57.839Z,100867.56
2023-05-23T20:56:29.648Z,101137.88
2023-05-23T20:59:01.128Z,101132.97
2023-05-23T21:01:33.067Z,101135.91
2023-05-23T21:04:04.724Z,101134.03
2023-05-23T21:06:36.243Z,101134.25
2023-05-23T21:09:07.726Z,101139.63
2023-05-23T21:11:39.238Z,101125.06
2023-05-23T21:14:10.716Z,101135.53
2023-05-23T21:16:42.455Z,101137.59
2023-05-23T21:19:14.011Z,101139.69
2023-05-23T21:21:45.640Z,101142.19
2023-05-23T21:24:17.324Z,101141.84
2023-05-23T21:26:48.847Z,101146.16
2023-05-23T21:29:20.973Z,101157.28
2023-05-23T21:31:52.574Z,101154.50
2023-05-23T21:34:24.657Z,101154.50
2023-05-23T21:36:56.203Z,101154.53
2023-05-23T21:39:39.182Z,101149.06
2023-05-23T21:42:14.748Z,101155.38
2023-05-23T21:44:46.640Z,101169.97
2023-05-23T21:47:18.201Z,101171.22
2023-05-23T21:49:50.067Z,101155.66
2023-05-23T21:52:21.823Z,101163.47
2023-05-23T21:54:53.615Z,101167.59
2023-05-23T21:57:25.280Z,101173.94
2023-05-23T21:59:56.780Z,101164.75
2023-05-23T22:02:28.631Z,101167.00
2023-05-23T22:05:00.496Z,101167.03
2023-05-23T22:07:32.050Z,101173.41
2023-05-23T22:10:03.543Z,101172.38
2023-05-23T22:12:35.138Z,101172.97
2023-05-23T22:15:06.619Z,101170.94
2023-05-23T22:17:38.328Z,101169.13
2023-05-23T22:20:09.868Z,101174.44
2023-05-23T22:22:41.709Z,101169.31
2023-05-23T22:25:13.686Z,101170.38
2023-05-23T22:27:45.209Z,101186.56
2023-05-23T22:30:17.079Z,101184.72
2023-05-23T22:32:48.800Z,101186.78
2023-05-23T22:35:20.903Z,101197.44
2023-05-23T22:37:52.398Z,101191.50
2023-05-23T22:40:24.231Z,101193.97
2023-05-23T22:42:55.717Z,101189.47
2023-05-23T22:45:27.404Z,101192.53
2023-05-23T22:47:58.907Z,101196.03
2023-05-23T22:50:30.871Z,101196.03
2023-05-23T22:53:02.393Z,101191.94
2023-05-23T22:55:33.897Z,101197.28
2023-05-23T22:58:05.649Z,101191.50
2023-05-23T23:00:37.159Z,101190.69
2023-05-23T23:03:09.077Z,101193.34
2023-05-23T23:05:40.607Z,101187.81
2023-05-23T23:08:12.436Z,101192.53
2023-05-23T23:10:44.495Z,101189.66
2023-05-23T23:13:16.546Z,101198.88
2023-05-23T23:15:48.034Z,101195.19
2023-05-23T23:18:19.885Z,101193.16
2023-05-23T23:20:51.376Z,101199.50
2023-05-23T23:23:22.868Z,101191.91
2023-05-23T23:25:54.346Z,101198.44
2023-05-23T23:28:26.210Z,101202.13
2023-05-23T23:30:57.982Z,101205.81
2023-05-23T23:33:29.487Z,101201.72
2023-05-23T23:36:01.263Z,101201.72
2023-05-23T23:38:32.744Z,101198.66
2023-05-23T23:41:04.577Z,101197.63
2023-05-23T23:43:36.044Z,101205.41
2023-05-23T23:46:08.000Z,101211.16
2023-05-23T23:48:39.520Z,101203.56
2023-05-23T23:51:11.465Z,101199.88
2023-05-23T23:53:43.778Z,101198.44
2023-05-23T23:56:16.277Z,101196.59
2023-05-23T23:58:47.950Z,101199.88
